sensor_id;sensor_type;location;lat;lon;timestamp;P1;durP1;ratioP1;P2;durP2;ratioP2
17201;SDS011;8717;53.588;10.176;2023-06-19T00:00:02;5.60;;;5.03;;
17201;SDS011;8717;53.588;10.176;2023-06-19T00:02:38;6.57;;;5.13;;
17201;SDS011;8717;53.588;10.176;2023-06-19T00:05:05;5.13;;;4.63;;
17201;SDS011;8717;53.588;10.176;2023-06-19T00:07:33;5.88;;;5.28;;
17201;SDS011;8717;53.588;10.176;2023-06-19T00:09:59;5.70;;;5.10;;
17201;SDS011;8717;53.588;10.176;2023-06-19T00:12:26;5.45;;;4.95;;
17201;SDS011;8717;53.588;10.176;2023-06-19T00:14:53;5.93;;;5.00;;
17201;SDS011;8717;53.588;10.176;2023-06-19T00:17:20;5.72;;;4.90;;
17201;SDS011;8717;53.588;10.176;2023-06-19T00:19:48;5.15;;;4.65;;
17201;SDS011;8717;53.588;10.176;2023-06-19T00:22:15;6.80;;;5.30;;
17201;SDS011;8717;53.588;10.176;2023-06-19T00:24:42;6.78;;;5.32;;
17201;SDS011;8717;53.588;10.176;2023-06-19T00:27:09;5.65;;;5.05;;
17201;SDS011;8717;53.588;10.176;2023-06-19T00:29:36;8.48;;;5.38;;
17201;SDS011;8717;53.588;10.176;2023-06-19T00:32:03;6.30;;;5.63;;
17201;SDS011;8717;53.588;10.176;2023-06-19T00:34:31;5.50;;;5.00;;
17201;SDS011;8717;53.588;10.176;2023-06-19T00:36:59;6.82;;;5.63;;
17201;SDS011;8717;53.588;10.176;2023-06-19T00:39:26;6.57;;;5.38;;
17201;SDS011;8717;53.588;10.176;2023-06-19T00:41:54;6.03;;;5.43;;
17201;SDS011;8717;53.588;10.176;2023-06-19T00:44:22;6.10;;;5.28;;
17201;SDS011;8717;53.588;10.176;2023-06-19T00:46:50;7.05;;;5.32;;
17201;SDS011;8717;53.588;10.176;2023-06-19T00:49:29;5.55;;;5.05;;
17201;SDS011;8717;53.588;10.176;2023-06-19T00:51:57;8.38;;;5.70;;
17201;SDS011;8717;53.588;10.176;2023-06-19T00:54:25;6.03;;;5.20;;
17201;SDS011;8717;53.588;10.176;2023-06-19T00:56:52;6.32;;;5.05;;
17201;SDS011;8717;53.588;10.176;2023-06-19T00:59:19;6.00;;;5.43;;
17201;SDS011;8717;53.588;10.176;2023-06-19T01:01:47;7.22;;;5.50;;
17201;SDS011;8717;53.588;10.176;2023-06-19T01:04:14;7.18;;;5.28;;
17201;SDS011;8717;53.588;10.176;2023-06-19T01:06:44;5.85;;;5.32;;
17201;SDS011;8717;53.588;10.176;2023-06-19T01:09:17;7.90;;;5.43;;
17201;SDS011;8717;53.588;10.176;2023-06-19T01:11:49;6.10;;;5.50;;
17201;SDS011;8717;53.588;10.176;2023-06-19T01:14:19;6.05;;;5.20;;
17201;SDS011;8717;53.588;10.176;2023-06-19T01:16:49;6.53;;;5.65;;
17201;SDS011;8717;53.588;10.176;2023-06-19T01:19:17;6.28;;;5.68;;
17201;SDS011;8717;53.588;10.176;2023-06-19T01:21:46;7.60;;;5.43;;
17201;SDS011;8717;53.588;10.176;2023-06-19T01:24:14;7.15;;;5.53;;
17201;SDS011;8717;53.588;10.176;2023-06-19T01:26:41;5.90;;;5.35;;
17201;SDS011;8717;53.588;10.176;2023-06-19T01:29:10;5.72;;;4.93;;
17201;SDS011;8717;53.588;10.176;2023-06-19T01:31:42;6.60;;;6.00;;
17201;SDS011;8717;53.588;10.176;2023-06-19T01:34:17;6.10;;;5.45;;
17201;SDS011;8717;53.588;10.176;2023-06-19T01:36:47;6.03;;;5.43;;
17201;SDS011;8717;53.588;10.176;2023-06-19T01:39:16;6.13;;;5.35;;
17201;SDS011;8717;53.588;10.176;2023-06-19T01:41:44;6.28;;;5.20;;
17201;SDS011;8717;53.588;10.176;2023-06-19T01:44:12;6.45;;;5.85;;
17201;SDS011;8717;53.588;10.176;2023-06-19T01:46:39;6.45;;;5.80;;
17201;SDS011;8717;53.588;10.176;2023-06-19T01:49:06;6.20;;;5.60;;
17201;SDS011;8717;53.588;10.176;2023-06-19T01:51:34;6.25;;;5.47;;
17201;SDS011;8717;53.588;10.176;2023-06-19T01:54:01;7.28;;;5.50;;
17201;SDS011;8717;53.588;10.176;2023-06-19T01:56:31;6.20;;;5.60;;
17201;SDS011;8717;53.588;10.176;2023-06-19T01:58:59;6.30;;;5.70;;
17201;SDS011;8717;53.588;10.176;2023-06-19T02:01:25;6.55;;;5.93;;
17201;SDS011;8717;53.588;10.176;2023-06-19T02:03:52;5.90;;;5.30;;
17201;SDS011;8717;53.588;10.176;2023-06-19T02:06:19;6.22;;;5.63;;
17201;SDS011;8717;53.588;10.176;2023-06-19T02:08:46;6.57;;;5.90;;
17201;SDS011;8717;53.588;10.176;2023-06-19T02:11:13;8.45;;;5.88;;
17201;SDS011;8717;53.588;10.176;2023-06-19T02:13:41;6.25;;;5.65;;
17201;SDS011;8717;53.588;10.176;2023-06-19T02:16:08;6.40;;;5.47;;
17201;SDS011;8717;53.588;10.176;2023-06-19T02:18:35;6.53;;;5.93;;
17201;SDS011;8717;53.588;10.176;2023-06-19T02:21:02;6.57;;;5.70;;
17201;SDS011;8717;53.588;10.176;2023-06-19T02:23:28;6.63;;;5.93;;
17201;SDS011;8717;53.588;10.176;2023-06-19T02:25:55;6.68;;;6.03;;
17201;SDS011;8717;53.588;10.176;2023-06-19T02:28:22;6.10;;;5.50;;
17201;SDS011;8717;53.588;10.176;2023-06-19T02:30:50;9.90;;;6.03;;
17201;SDS011;8717;53.588;10.176;2023-06-19T02:33:17;6.18;;;5.57;;
17201;SDS011;8717;53.588;10.176;2023-06-19T02:35:45;6.72;;;6.07;;
17201;SDS011;8717;53.588;10.176;2023-06-19T02:38:12;6.63;;;5.50;;
17201;SDS011;8717;53.588;10.176;2023-06-19T02:40:39;6.18;;;5.63;;
17201;SDS011;8717;53.588;10.176;2023-06-19T02:43:06;7.50;;;6.57;;
17201;SDS011;8717;53.588;10.176;2023-06-19T02:45:33;7.53;;;6.35;;
17201;SDS011;8717;53.588;10.176;2023-06-19T02:48:03;7.10;;;6.40;;
17201;SDS011;8717;53.588;10.176;2023-06-19T02:50:31;6.22;;;5.63;;
17201;SDS011;8717;53.588;10.176;2023-06-19T02:52:58;6.65;;;6.03;;
17201;SDS011;8717;53.588;10.176;2023-06-19T02:55:24;7.13;;;6.43;;
17201;SDS011;8717;53.588;10.176;2023-06-19T02:57:51;6.45;;;5.85;;
17201;SDS011;8717;53.588;10.176;2023-06-19T03:00:18;6.90;;;6.20;;
17201;SDS011;8717;53.588;10.176;2023-06-19T03:02:45;7.00;;;6.30;;
17201;SDS011;8717;53.588;10.176;2023-06-19T03:05:14;6.38;;;5.78;;
17201;SDS011;8717;53.588;10.176;2023-06-19T03:07:41;7.25;;;6.13;;
17201;SDS011;8717;53.588;10.176;2023-06-19T03:10:08;6.90;;;6.20;;
17201;SDS011;8717;53.588;10.176;2023-06-19T03:12:35;6.90;;;6.20;;
17201;SDS011;8717;53.588;10.176;2023-06-19T03:15:02;7.07;;;6.38;;
17201;SDS011;8717;53.588;10.176;2023-06-19T03:17:32;6.45;;;5.85;;
17201;SDS011;8717;53.588;10.176;2023-06-19T03:19:58;7.03;;;6.10;;
17201;SDS011;8717;53.588;10.176;2023-06-19T03:22:26;6.93;;;6.32;;
17201;SDS011;8717;53.588;10.176;2023-06-19T03:24:53;7.05;;;6.30;;
17201;SDS011;8717;53.588;10.176;2023-06-19T03:27:20;7.10;;;6.20;;
17201;SDS011;8717;53.588;10.176;2023-06-19T03:29:47;6.93;;;6.32;;
17201;SDS011;8717;53.588;10.176;2023-06-19T03:32:20;7.35;;;6.65;;
17201;SDS011;8717;53.588;10.176;2023-06-19T03:34:48;8.75;;;6.63;;
17201;SDS011;8717;53.588;10.176;2023-06-19T03:37:15;7.10;;;6.40;;
17201;SDS011;8717;53.588;10.176;2023-06-19T03:39:43;7.50;;;6.70;;
17201;SDS011;8717;53.588;10.176;2023-06-19T03:42:11;7.85;;;6.70;;
17201;SDS011;8717;53.588;10.176;2023-06-19T03:44:38;6.95;;;6.25;;
17201;SDS011;8717;53.588;10.176;2023-06-19T03:47:05;6.60;;;6.00;;
17201;SDS011;8717;53.588;10.176;2023-06-19T03:49:33;7.68;;;6.88;;
17201;SDS011;8717;53.588;10.176;2023-06-19T03:51:59;7.88;;;6.18;;
17201;SDS011;8717;53.588;10.176;2023-06-19T03:54:26;7.22;;;6.28;;
17201;SDS011;8717;53.588;10.176;2023-06-19T03:56:54;7.30;;;6.60;;
17201;SDS011;8717;53.588;10.176;2023-06-19T03:59:21;7.15;;;6.45;;
17201;SDS011;8717;53.588;10.176;2023-06-19T04:01:48;7.55;;;6.60;;
17201;SDS011;8717;53.588;10.176;2023-06-19T04:04:16;7.82;;;7.13;;
17201;SDS011;8717;53.588;10.176;2023-06-19T04:06:43;7.78;;;6.97;;
17201;SDS011;8717;53.588;10.176;2023-06-19T04:09:12;7.15;;;6.47;;
17201;SDS011;8717;53.588;10.176;2023-06-19T04:11:39;8.27;;;7.47;;
17201;SDS011;8717;53.588;10.176;2023-06-19T04:14:07;7.55;;;6.85;;
17201;SDS011;8717;53.588;10.176;2023-06-19T04:16:35;7.97;;;7.18;;
17201;SDS011;8717;53.588;10.176;2023-06-19T04:19:02;8.23;;;7.43;;
17201;SDS011;8717;53.588;10.176;2023-06-19T04:21:29;7.40;;;6.55;;
17201;SDS011;8717;53.588;10.176;2023-06-19T04:23:56;8.27;;;6.97;;
17201;SDS011;8717;53.588;10.176;2023-06-19T04:26:23;7.82;;;7.00;;
17201;SDS011;8717;53.588;10.176;2023-06-19T04:28:50;7.78;;;7.07;;
17201;SDS011;8717;53.588;10.176;2023-06-19T04:31:19;7.72;;;7.03;;
17201;SDS011;8717;53.588;10.176;2023-06-19T04:33:46;7.43;;;6.72;;
17201;SDS011;8717;53.588;10.176;2023-06-19T04:36:13;7.53;;;6.75;;
17201;SDS011;8717;53.588;10.176;2023-06-19T04:38:40;7.55;;;6.70;;
17201;SDS011;8717;53.588;10.176;2023-06-19T04:41:09;7.95;;;7.25;;
17201;SDS011;8717;53.588;10.176;2023-06-19T04:43:36;8.38;;;7.15;;
17201;SDS011;8717;53.588;10.176;2023-06-19T04:46:04;8.32;;;7.53;;
17201;SDS011;8717;53.588;10.176;2023-06-19T04:48:32;7.85;;;7.15;;
17201;SDS011;8717;53.588;10.176;2023-06-19T04:51:01;8.02;;;7.32;;
17201;SDS011;8717;53.588;10.176;2023-06-19T04:53:28;7.93;;;7.20;;
17201;SDS011;8717;53.588;10.176;2023-06-19T04:55:55;7.70;;;7.00;;
17201;SDS011;8717;53.588;10.176;2023-06-19T04:58:22;7.68;;;7.03;;
17201;SDS011;8717;53.588;10.176;2023-06-19T05:00:49;9.15;;;7.55;;
17201;SDS011;8717;53.588;10.176;2023-06-19T05:03:17;8.32;;;7.32;;
17201;SDS011;8717;53.588;10.176;2023-06-19T05:05:46;7.85;;;7.00;;
17201;SDS011;8717;53.588;10.176;2023-06-19T05:08:12;8.43;;;7.45;;
17201;SDS011;8717;53.588;10.176;2023-06-19T05:10:39;9.57;;;7.40;;
17201;SDS011;8717;53.588;10.176;2023-06-19T05:13:06;8.65;;;7.53;;
17201;SDS011;8717;53.588;10.176;2023-06-19T05:15:33;7.90;;;7.20;;
17201;SDS011;8717;53.588;10.176;2023-06-19T05:18:00;8.18;;;7.38;;
17201;SDS011;8717;53.588;10.176;2023-06-19T05:20:26;8.75;;;7.80;;
17201;SDS011;8717;53.588;10.176;2023-06-19T05:22:54;8.38;;;7.57;;
17201;SDS011;8717;53.588;10.176;2023-06-19T05:25:21;7.93;;;7.13;;
17201;SDS011;8717;53.588;10.176;2023-06-19T05:27:48;8.65;;;7.85;;
17201;SDS011;8717;53.588;10.176;2023-06-19T05:30:14;8.30;;;7.30;;
17201;SDS011;8717;53.588;10.176;2023-06-19T05:32:41;8.65;;;7.82;;
17201;SDS011;8717;53.588;10.176;2023-06-19T05:35:08;8.80;;;8.00;;
17201;SDS011;8717;53.588;10.176;2023-06-19T05:37:35;8.95;;;8.05;;
17201;SDS011;8717;53.588;10.176;2023-06-19T05:40:05;8.60;;;7.70;;
17201;SDS011;8717;53.588;10.176;2023-06-19T05:42:32;8.70;;;7.68;;
17201;SDS011;8717;53.588;10.176;2023-06-19T05:44:59;8.43;;;7.72;;
17201;SDS011;8717;53.588;10.176;2023-06-19T05:47:27;8.32;;;7.63;;
17201;SDS011;8717;53.588;10.176;2023-06-19T05:49:55;9.25;;;7.63;;
17201;SDS011;8717;53.588;10.176;2023-06-19T05:52:22;9.30;;;8.30;;
17201;SDS011;8717;53.588;10.176;2023-06-19T05:54:49;9.57;;;8.38;;
17201;SDS011;8717;53.588;10.176;2023-06-19T05:57:18;8.75;;;7.85;;
17201;SDS011;8717;53.588;10.176;2023-06-19T05:59:46;9.35;;;8.35;;
17201;SDS011;8717;53.588;10.176;2023-06-19T06:02:12;8.27;;;7.53;;
17201;SDS011;8717;53.588;10.176;2023-06-19T06:04:40;8.82;;;7.93;;
17201;SDS011;8717;53.588;10.176;2023-06-19T06:07:07;8.82;;;8.02;;
17201;SDS011;8717;53.588;10.176;2023-06-19T06:09:34;8.55;;;7.75;;
17201;SDS011;8717;53.588;10.176;2023-06-19T06:12:00;9.07;;;8.18;;
17201;SDS011;8717;53.588;10.176;2023-06-19T06:14:29;9.10;;;8.30;;
17201;SDS011;8717;53.588;10.176;2023-06-19T06:16:55;9.18;;;8.13;;
17201;SDS011;8717;53.588;10.176;2023-06-19T06:19:22;9.10;;;8.30;;
17201;SDS011;8717;53.588;10.176;2023-06-19T06:21:49;9.25;;;8.35;;
17201;SDS011;8717;53.588;10.176;2023-06-19T06:24:16;9.05;;;8.20;;
17201;SDS011;8717;53.588;10.176;2023-06-19T06:26:42;9.40;;;8.55;;
17201;SDS011;8717;53.588;10.176;2023-06-19T06:29:10;9.23;;;8.40;;
17201;SDS011;8717;53.588;10.176;2023-06-19T06:31:38;8.90;;;8.10;;
17201;SDS011;8717;53.588;10.176;2023-06-19T06:34:06;8.90;;;8.10;;
17201;SDS011;8717;53.588;10.176;2023-06-19T06:36:33;9.23;;;8.30;;
17201;SDS011;8717;53.588;10.176;2023-06-19T06:39:00;10.82;;;8.40;;
17201;SDS011;8717;53.588;10.176;2023-06-19T06:41:27;11.68;;;8.20;;
17201;SDS011;8717;53.588;10.176;2023-06-19T06:43:55;14.38;;;8.57;;
17201;SDS011;8717;53.588;10.176;2023-06-19T06:46:22;9.23;;;8.23;;
17201;SDS011;8717;53.588;10.176;2023-06-19T06:48:50;11.13;;;8.25;;
17201;SDS011;8717;53.588;10.176;2023-06-19T06:51:16;9.73;;;8.73;;
17201;SDS011;8717;53.588;10.176;2023-06-19T06:53:43;9.52;;;8.63;;
17201;SDS011;8717;53.588;10.176;2023-06-19T06:56:10;10.65;;;8.45;;
17201;SDS011;8717;53.588;10.176;2023-06-19T06:58:37;9.70;;;8.80;;
17201;SDS011;8717;53.588;10.176;2023-06-19T07:01:04;10.13;;;9.15;;
17201;SDS011;8717;53.588;10.176;2023-06-19T07:03:31;9.32;;;8.48;;
17201;SDS011;8717;53.588;10.176;2023-06-19T07:05:59;8.98;;;8.13;;
17201;SDS011;8717;53.588;10.176;2023-06-19T07:08:26;10.38;;;9.48;;
17201;SDS011;8717;53.588;10.176;2023-06-19T07:10:52;10.23;;;9.23;;
17201;SDS011;8717;53.588;10.176;2023-06-19T07:13:19;10.27;;;9.18;;
17201;SDS011;8717;53.588;10.176;2023-06-19T07:15:46;9.80;;;8.80;;
17201;SDS011;8717;53.588;10.176;2023-06-19T07:18:12;9.30;;;8.40;;
17201;SDS011;8717;53.588;10.176;2023-06-19T07:20:39;10.55;;;9.65;;
17201;SDS011;8717;53.588;10.176;2023-06-19T07:23:07;9.23;;;8.38;;
17201;SDS011;8717;53.588;10.176;2023-06-19T07:25:34;9.48;;;8.48;;
17201;SDS011;8717;53.588;10.176;2023-06-19T07:28:01;10.10;;;9.10;;
17201;SDS011;8717;53.588;10.176;2023-06-19T07:30:29;9.38;;;8.48;;
17201;SDS011;8717;53.588;10.176;2023-06-19T07:32:56;10.02;;;9.02;;
17201;SDS011;8717;53.588;10.176;2023-06-19T07:35:22;9.43;;;8.55;;
17201;SDS011;8717;53.588;10.176;2023-06-19T07:37:49;9.70;;;8.45;;
17201;SDS011;8717;53.588;10.176;2023-06-19T07:40:17;10.57;;;9.07;;
17201;SDS011;8717;53.588;10.176;2023-06-19T07:42:44;10.52;;;9.52;;
17201;SDS011;8717;53.588;10.176;2023-06-19T07:45:11;9.77;;;8.85;;
17201;SDS011;8717;53.588;10.176;2023-06-19T07:47:38;9.95;;;9.05;;
17201;SDS011;8717;53.588;10.176;2023-06-19T07:50:06;9.52;;;8.60;;
17201;SDS011;8717;53.588;10.176;2023-06-19T07:52:33;10.15;;;9.25;;
17201;SDS011;8717;53.588;10.176;2023-06-19T07:55:00;9.60;;;8.60;;
17201;SDS011;8717;53.588;10.176;2023-06-19T07:57:28;9.60;;;8.60;;
17201;SDS011;8717;53.588;10.176;2023-06-19T07:59:54;10.30;;;8.73;;
17201;SDS011;8717;53.588;10.176;2023-06-19T08:02:21;9.52;;;8.52;;
17201;SDS011;8717;53.588;10.176;2023-06-19T08:04:48;9.88;;;8.93;;
17201;SDS011;8717;53.588;10.176;2023-06-19T08:07:16;10.43;;;9.43;;
17201;SDS011;8717;53.588;10.176;2023-06-19T08:09:43;10.32;;;9.27;;
17201;SDS011;8717;53.588;10.176;2023-06-19T08:12:09;9.20;;;8.30;;
17201;SDS011;8717;53.588;10.176;2023-06-19T08:14:37;10.80;;;9.70;;
17201;SDS011;8717;53.588;10.176;2023-06-19T08:17:04;11.90;;;9.20;;
17201;SDS011;8717;53.588;10.176;2023-06-19T08:19:31;10.25;;;9.18;;
17201;SDS011;8717;53.588;10.176;2023-06-19T08:21:58;10.32;;;9.23;;
17201;SDS011;8717;53.588;10.176;2023-06-19T08:24:24;10.95;;;9.85;;
17201;SDS011;8717;53.588;10.176;2023-06-19T08:26:51;11.18;;;9.00;;
17201;SDS011;8717;53.588;10.176;2023-06-19T08:29:18;9.88;;;8.93;;
17201;SDS011;8717;53.588;10.176;2023-06-19T08:31:46;11.40;;;8.75;;
17201;SDS011;8717;53.588;10.176;2023-06-19T08:34:13;10.40;;;9.40;;
17201;SDS011;8717;53.588;10.176;2023-06-19T08:36:39;9.63;;;8.63;;
17201;SDS011;8717;53.588;10.176;2023-06-19T08:39:06;10.00;;;8.95;;
17201;SDS011;8717;53.588;10.176;2023-06-19T08:41:33;10.07;;;9.18;;
17201;SDS011;8717;53.588;10.176;2023-06-19T08:44:01;9.68;;;8.80;;
17201;SDS011;8717;53.588;10.176;2023-06-19T08:46:28;10.75;;;9.75;;
17201;SDS011;8717;53.588;10.176;2023-06-19T08:48:56;10.02;;;9.13;;
17201;SDS011;8717;53.588;10.176;2023-06-19T08:51:26;8.75;;;7.95;;
17201;SDS011;8717;53.588;10.176;2023-06-19T08:53:54;9.77;;;8.65;;
17201;SDS011;8717;53.588;10.176;2023-06-19T08:56:23;10.05;;;9.07;;
17201;SDS011;8717;53.588;10.176;2023-06-19T08:58:50;9.60;;;8.65;;
17201;SDS011;8717;53.588;10.176;2023-06-19T09:01:17;10.18;;;8.75;;
17201;SDS011;8717;53.588;10.176;2023-06-19T09:03:44;9.55;;;8.75;;
17201;SDS011;8717;53.588;10.176;2023-06-19T09:06:15;9.60;;;8.65;;
17201;SDS011;8717;53.588;10.176;2023-06-19T09:08:42;10.02;;;9.13;;
17201;SDS011;8717;53.588;10.176;2023-06-19T09:11:09;10.50;;;9.48;;
17201;SDS011;8717;53.588;10.176;2023-06-19T09:13:37;10.48;;;9.48;;
17201;SDS011;8717;53.588;10.176;2023-06-19T09:16:04;9.70;;;8.80;;
17201;SDS011;8717;53.588;10.176;2023-06-19T09:18:41;10.13;;;8.63;;
17201;SDS011;8717;53.588;10.176;2023-06-19T09:21:16;9.70;;;8.82;;
17201;SDS011;8717;53.588;10.176;2023-06-19T09:23:44;9.57;;;8.65;;
17201;SDS011;8717;53.588;10.176;2023-06-19T09:26:13;9.68;;;8.65;;
17201;SDS011;8717;53.588;10.176;2023-06-19T09:28:41;8.80;;;8.00;;
17201;SDS011;8717;53.588;10.176;2023-06-19T09:31:08;9.57;;;8.43;;
17201;SDS011;8717;53.588;10.176;2023-06-19T09:33:35;10.05;;;9.10;;
17201;SDS011;8717;53.588;10.176;2023-06-19T09:36:03;9.43;;;8.52;;
17201;SDS011;8717;53.588;10.176;2023-06-19T09:38:32;11.65;;;9.38;;
17201;SDS011;8717;53.588;10.176;2023-06-19T09:41:01;9.63;;;8.73;;
17201;SDS011;8717;53.588;10.176;2023-06-19T09:43:30;8.98;;;8.20;;
17201;SDS011;8717;53.588;10.176;2023-06-19T09:46:02;8.75;;;7.95;;
17201;SDS011;8717;53.588;10.176;2023-06-19T09:48:30;8.85;;;8.05;;
17201;SDS011;8717;53.588;10.176;2023-06-19T09:51:00;8.52;;;7.72;;
17201;SDS011;8717;53.588;10.176;2023-06-19T09:53:35;8.50;;;7.78;;
17201;SDS011;8717;53.588;10.176;2023-06-19T09:56:03;8.15;;;6.75;;
17201;SDS011;8717;53.588;10.176;2023-06-19T09:58:30;8.48;;;7.68;;
17201;SDS011;8717;53.588;10.176;2023-06-19T10:00:57;8.10;;;7.40;;
17201;SDS011;8717;53.588;10.176;2023-06-19T10:03:29;8.10;;;7.40;;
17201;SDS011;8717;53.588;10.176;2023-06-19T10:05:57;8.48;;;7.68;;
17201;SDS011;8717;53.588;10.176;2023-06-19T10:08:28;9.07;;;8.18;;
17201;SDS011;8717;53.588;10.176;2023-06-19T10:10:57;8.70;;;7.95;;
17201;SDS011;8717;53.588;10.176;2023-06-19T10:13:30;8.80;;;8.00;;
17201;SDS011;8717;53.588;10.176;2023-06-19T10:15:58;8.80;;;7.90;;
17201;SDS011;8717;53.588;10.176;2023-06-19T10:18:24;9.45;;;8.40;;
17201;SDS011;8717;53.588;10.176;2023-06-19T10:20:53;9.00;;;8.00;;
17201;SDS011;8717;53.588;10.176;2023-06-19T10:23:20;8.90;;;8.10;;
17201;SDS011;8717;53.588;10.176;2023-06-19T10:25:56;8.88;;;8.00;;
17201;SDS011;8717;53.588;10.176;2023-06-19T10:28:27;8.75;;;7.72;;
17201;SDS011;8717;53.588;10.176;2023-06-19T10:30:54;10.00;;;8.30;;
17201;SDS011;8717;53.588;10.176;2023-06-19T10:33:22;8.77;;;7.97;;
17201;SDS011;8717;53.588;10.176;2023-06-19T10:35:51;9.25;;;8.32;;
17201;SDS011;8717;53.588;10.176;2023-06-19T10:38:18;9.32;;;8.38;;
17201;SDS011;8717;53.588;10.176;2023-06-19T10:40:45;9.48;;;8.52;;
17201;SDS011;8717;53.588;10.176;2023-06-19T10:43:18;9.43;;;8.52;;
17201;SDS011;8717;53.588;10.176;2023-06-19T10:45:46;9.27;;;8.45;;
17201;SDS011;8717;53.588;10.176;2023-06-19T10:48:17;9.57;;;8.77;;
17201;SDS011;8717;53.588;10.176;2023-06-19T10:50:45;9.52;;;8.30;;
17201;SDS011;8717;53.588;10.176;2023-06-19T10:53:22;10.15;;;8.55;;
17201;SDS011;8717;53.588;10.176;2023-06-19T10:55:54;10.73;;;8.50;;
17201;SDS011;8717;53.588;10.176;2023-06-19T10:58:22;10.10;;;8.57;;
17201;SDS011;8717;53.588;10.176;2023-06-19T11:00:49;9.25;;;8.23;;
17201;SDS011;8717;53.588;10.176;2023-06-19T11:03:15;9.13;;;8.23;;
17201;SDS011;8717;53.588;10.176;2023-06-19T11:05:43;10.07;;;9.18;;
17201;SDS011;8717;53.588;10.176;2023-06-19T11:08:10;9.30;;;8.48;;
17201;SDS011;8717;53.588;10.176;2023-06-19T11:10:42;9.20;;;8.40;;
17201;SDS011;8717;53.588;10.176;2023-06-19T11:13:12;9.35;;;8.30;;
17201;SDS011;8717;53.588;10.176;2023-06-19T11:15:41;10.15;;;9.15;;
17201;SDS011;8717;53.588;10.176;2023-06-19T11:18:08;9.77;;;8.80;;
17201;SDS011;8717;53.588;10.176;2023-06-19T11:20:42;9.02;;;8.23;;
17201;SDS011;8717;53.588;10.176;2023-06-19T11:23:09;9.55;;;8.65;;
17201;SDS011;8717;53.588;10.176;2023-06-19T11:25:36;9.98;;;8.98;;
17201;SDS011;8717;53.588;10.176;2023-06-19T11:28:04;10.00;;;9.13;;
17201;SDS011;8717;53.588;10.176;2023-06-19T11:30:31;9.77;;;8.80;;
17201;SDS011;8717;53.588;10.176;2023-06-19T11:33:00;8.77;;;7.97;;
17201;SDS011;8717;53.588;10.176;2023-06-19T11:35:32;9.55;;;8.65;;
17201;SDS011;8717;53.588;10.176;2023-06-19T11:38:01;8.95;;;8.05;;
17201;SDS011;8717;53.588;10.176;2023-06-19T11:40:28;9.77;;;8.77;;
17201;SDS011;8717;53.588;10.176;2023-06-19T11:43:04;9.13;;;8.30;;
17201;SDS011;8717;53.588;10.176;2023-06-19T11:45:31;9.48;;;8.60;;
17201;SDS011;8717;53.588;10.176;2023-06-19T11:47:58;8.57;;;7.68;;
17201;SDS011;8717;53.588;10.176;2023-06-19T11:50:27;9.20;;;8.27;;
17201;SDS011;8717;53.588;10.176;2023-06-19T11:52:54;8.40;;;7.57;;
17201;SDS011;8717;53.588;10.176;2023-06-19T11:55:22;7.85;;;7.07;;
17201;SDS011;8717;53.588;10.176;2023-06-19T11:57:49;8.93;;;8.02;;
17201;SDS011;8717;53.588;10.176;2023-06-19T12:00:16;9.25;;;8.45;;
17201;SDS011;8717;53.588;10.176;2023-06-19T12:02:43;9.02;;;7.82;;
17201;SDS011;8717;53.588;10.176;2023-06-19T12:05:11;7.95;;;7.25;;
17201;SDS011;8717;53.588;10.176;2023-06-19T12:07:40;7.68;;;7.07;;
17201;SDS011;8717;53.588;10.176;2023-06-19T12:10:07;9.48;;;7.20;;
17201;SDS011;8717;53.588;10.176;2023-06-19T12:12:37;8.05;;;7.35;;
17201;SDS011;8717;53.588;10.176;2023-06-19T12:15:04;7.93;;;7.22;;
17201;SDS011;8717;53.588;10.176;2023-06-19T12:17:32;7.60;;;6.78;;
17201;SDS011;8717;53.588;10.176;2023-06-19T12:19:59;7.65;;;6.82;;
17201;SDS011;8717;53.588;10.176;2023-06-19T12:22:26;7.57;;;6.97;;
17201;SDS011;8717;53.588;10.176;2023-06-19T12:24:54;7.13;;;6.43;;
17201;SDS011;8717;53.588;10.176;2023-06-19T12:27:21;7.40;;;6.70;;
17201;SDS011;8717;53.588;10.176;2023-06-19T12:29:48;7.93;;;7.22;;
17201;SDS011;8717;53.588;10.176;2023-06-19T12:32:14;8.27;;;6.82;;
17201;SDS011;8717;53.588;10.176;2023-06-19T12:34:41;7.05;;;6.45;;
17201;SDS011;8717;53.588;10.176;2023-06-19T12:37:11;7.03;;;6.32;;
17201;SDS011;8717;53.588;10.176;2023-06-19T12:39:38;7.22;;;6.50;;
17201;SDS011;8717;53.588;10.176;2023-06-19T12:42:08;7.18;;;6.57;;
17201;SDS011;8717;53.588;10.176;2023-06-19T12:44:36;7.10;;;6.50;;
17201;SDS011;8717;53.588;10.176;2023-06-19T12:47:03;6.88;;;5.85;;
17201;SDS011;8717;53.588;10.176;2023-06-19T12:49:30;6.40;;;5.80;;
17201;SDS011;8717;53.588;10.176;2023-06-19T12:51:57;5.68;;;5.18;;
17201;SDS011;8717;53.588;10.176;2023-06-19T12:54:25;5.78;;;5.25;;
17201;SDS011;8717;53.588;10.176;2023-06-19T12:56:52;6.00;;;5.40;;
17201;SDS011;8717;53.588;10.176;2023-06-19T12:59:20;6.63;;;6.03;;
17201;SDS011;8717;53.588;10.176;2023-06-19T13:01:46;6.60;;;5.15;;
17201;SDS011;8717;53.588;10.176;2023-06-19T13:04:13;5.63;;;5.10;;
17201;SDS011;8717;53.588;10.176;2023-06-19T13:06:40;5.65;;;4.90;;
17201;SDS011;8717;53.588;10.176;2023-06-19T13:09:07;5.95;;;5.35;;
17201;SDS011;8717;53.588;10.176;2023-06-19T13:11:34;5.63;;;5.00;;
17201;SDS011;8717;53.588;10.176;2023-06-19T13:14:01;5.70;;;5.20;;
17201;SDS011;8717;53.588;10.176;2023-06-19T13:16:30;6.28;;;5.78;;
17201;SDS011;8717;53.588;10.176;2023-06-19T13:18:56;5.50;;;5.00;;
17201;SDS011;8717;53.588;10.176;2023-06-19T13:21:23;7.32;;;5.57;;
17201;SDS011;8717;53.588;10.176;2023-06-19T13:23:50;6.00;;;5.50;;
17201;SDS011;8717;53.588;10.176;2023-06-19T13:26:16;5.95;;;5.45;;
17201;SDS011;8717;53.588;10.176;2023-06-19T13:28:43;6.03;;;5.43;;
17201;SDS011;8717;53.588;10.176;2023-06-19T13:31:10;5.78;;;5.13;;
17201;SDS011;8717;53.588;10.176;2023-06-19T13:33:38;6.80;;;5.10;;
17201;SDS011;8717;53.588;10.176;2023-06-19T13:36:04;5.00;;;4.47;;
17201;SDS011;8717;53.588;10.176;2023-06-19T13:38:31;5.55;;;4.40;;
17201;SDS011;8717;53.588;10.176;2023-06-19T13:40:58;5.70;;;4.68;;
17201;SDS011;8717;53.588;10.176;2023-06-19T13:43:24;4.82;;;4.40;;
17201;SDS011;8717;53.588;10.176;2023-06-19T13:45:51;7.07;;;4.65;;
17201;SDS011;8717;53.588;10.176;2023-06-19T13:48:18;4.40;;;3.97;;
17201;SDS011;8717;53.588;10.176;2023-06-19T13:50:46;7.13;;;3.88;;
17201;SDS011;8717;53.588;10.176;2023-06-19T13:53:13;4.28;;;3.92;;
17201;SDS011;8717;53.588;10.176;2023-06-19T13:55:39;4.90;;;4.38;;
17201;SDS011;8717;53.588;10.176;2023-06-19T13:58:06;5.10;;;4.32;;
17201;SDS011;8717;53.588;10.176;2023-06-19T14:00:32;7.28;;;4.47;;
17201;SDS011;8717;53.588;10.176;2023-06-19T14:03:01;4.57;;;4.18;;
17201;SDS011;8717;53.588;10.176;2023-06-19T14:05:31;5.30;;;4.30;;
17201;SDS011;8717;53.588;10.176;2023-06-19T14:08:00;5.88;;;5.30;;
17201;SDS011;8717;53.588;10.176;2023-06-19T14:10:28;6.70;;;5.50;;
17201;SDS011;8717;53.588;10.176;2023-06-19T14:12:54;6.82;;;4.68;;
17201;SDS011;8717;53.588;10.176;2023-06-19T14:15:21;4.97;;;4.55;;
17201;SDS011;8717;53.588;10.176;2023-06-19T14:17:48;5.85;;;5.10;;
17201;SDS011;8717;53.588;10.176;2023-06-19T14:20:14;5.88;;;4.45;;
17201;SDS011;8717;53.588;10.176;2023-06-19T14:22:41;5.40;;;4.90;;
17201;SDS011;8717;53.588;10.176;2023-06-19T14:25:09;5.15;;;4.70;;
17201;SDS011;8717;53.588;10.176;2023-06-19T14:27:37;5.47;;;4.78;;
17201;SDS011;8717;53.588;10.176;2023-06-19T14:30:04;6.50;;;4.80;;
17201;SDS011;8717;53.588;10.176;2023-06-19T14:32:33;4.95;;;4.53;;
17201;SDS011;8717;53.588;10.176;2023-06-19T14:35:01;5.35;;;4.85;;
17201;SDS011;8717;53.588;10.176;2023-06-19T14:37:27;6.00;;;4.40;;
17201;SDS011;8717;53.588;10.176;2023-06-19T14:39:54;4.57;;;4.18;;
17201;SDS011;8717;53.588;10.176;2023-06-19T14:42:22;5.07;;;4.40;;
17201;SDS011;8717;53.588;10.176;2023-06-19T14:44:49;8.45;;;4.38;;
17201;SDS011;8717;53.588;10.176;2023-06-19T14:47:16;6.40;;;4.53;;